createdAt,value
2018-12-31T00:00:32.802Z,82.12
2018-12-31T00:01:32.791Z,82.12
2018-12-31T00:02:32.783Z,82.23
2018-12-31T00:03:32.769Z,82.12
2018-12-31T00:04:32.764Z,82.03
2018-12-31T00:05:32.961Z,82.43
2018-12-31T00:06:32.744Z,82.57
2018-12-31T00:07:32.726Z,82.57
2018-12-31T00:08:32.717Z,82.06
2018-12-31T00:09:32.707Z,81.96
2018-12-31T00:10:32.697Z,82.26
2018-12-31T00:11:32.786Z,82.17
2018-12-31T00:12:32.676Z,81.92
2018-12-31T00:13:32.678Z,82.17
2018-12-31T00:14:32.700Z,82.26
2018-12-31T00:15:34.197Z,82.23
2018-12-31T00:16:32.631Z,81.96
2018-12-31T00:17:32.722Z,82.06
2018-12-31T00:18:32.613Z,81.96
2018-12-31T00:19:32.597Z,81.96
2018-12-31T00:20:32.587Z,82.06
2018-12-31T00:21:32.576Z,81.96
2018-12-31T00:22:32.565Z,81.96
2018-12-31T00:23:32.715Z,82.17
2018-12-31T00:24:32.543Z,82.57
2018-12-31T00:25:32.532Z,82.53
2018-12-31T00:26:32.522Z,82.47
2018-12-31T00:27:32.513Z,82.57
2018-12-31T00:28:32.501Z,82.33
2018-12-31T00:29:32.628Z,82.37
2018-12-31T00:30:32.479Z,82.26
2018-12-31T00:31:32.468Z,82.06
2018-12-31T00:32:32.470Z,82.37
2018-12-31T00:33:32.447Z,82.37
2018-12-31T00:34:32.437Z,82.37
2018-12-31T00:35:32.601Z,82.47
2018-12-31T00:36:41.169Z,82.37
2018-12-31T00:37:41.192Z,81.96
2018-12-31T00:38:32.392Z,82.17
2018-12-31T00:39:32.386Z,82.47
2018-12-31T00:40:32.371Z,82.47
2018-12-31T00:41:32.520Z,82.47
2018-12-31T00:42:32.352Z,82.47
2018-12-31T00:43:32.338Z,82.57
2018-12-31T00:44:32.328Z,82.37
2018-12-31T00:45:42.274Z,82.57
2018-12-31T00:46:32.306Z,82.37
2018-12-31T00:47:32.395Z,82.47
2018-12-31T00:48:32.286Z,82.51
2018-12-31T00:49:32.295Z,82.47
2018-12-31T00:50:32.263Z,82.51
2018-12-31T00:51:32.262Z,82.51
2018-12-31T00:52:32.249Z,82.78
2018-12-31T00:53:32.328Z,82.47
2018-12-31T00:54:32.222Z,82.31
2018-12-31T00:55:32.211Z,82.47
2018-12-31T00:56:32.204Z,82.51
2018-12-31T00:57:32.187Z,82.37
2018-12-31T00:58:32.178Z,82.40
2018-12-31T00:59:32.333Z,82.40
2018-12-31T01:00:32.157Z,82.40
2018-12-31T01:01:32.143Z,82.37
2018-12-31T01:02:32.132Z,82.20
2018-12-31T01:03:32.122Z,82.40
2018-12-31T01:04:32.112Z,83.01
2018-12-31T01:05:32.209Z,83.01
2018-12-31T01:06:32.091Z,82.81
2018-12-31T01:07:32.081Z,82.81
2018-12-31T01:08:32.073Z,82.10
2018-12-31T01:09:32.056Z,82.92
2018-12-31T01:10:32.046Z,82.71
2018-12-31T01:11:32.374Z,82.40
2018-12-31T01:12:32.026Z,82.71
2018-12-31T01:13:32.014Z,82.61
2018-12-31T01:14:32.003Z,82.61
2018-12-31T01:15:32.004Z,82.71
2018-12-31T01:16:31.981Z,82.51
2018-12-31T01:17:32.066Z,82.61
2018-12-31T01:18:31.962Z,82.31
2018-12-31T01:19:31.950Z,82.10
2018-12-31T01:20:31.940Z,82.20
2018-12-31T01:21:31.949Z,82.81
2018-12-31T01:22:31.918Z,82.31
2018-12-31T01:23:32.000Z,82.61
2018-12-31T01:24:31.896Z,82.71
2018-12-31T01:25:31.885Z,82.71
2018-12-31T01:26:31.874Z,82.81
2018-12-31T01:27:31.864Z,82.81
2018-12-31T01:28:31.853Z,82.31
2018-12-31T01:29:31.956Z,82.71
2018-12-31T01:30:31.831Z,82.51
2018-12-31T01:31:31.819Z,82.61
2018-12-31T01:32:31.820Z,82.71
2018-12-31T01:33:31.798Z,82.71
2018-12-31T01:34:31.791Z,82.61
2018-12-31T01:35:31.964Z,82.92
2018-12-31T01:36:31.767Z,82.81
2018-12-31T01:37:31.760Z,82.81
2018-12-31T01:38:31.745Z,82.61
2018-12-31T01:39:31.733Z,82.34
2018-12-31T01:40:31.726Z,82.31
2018-12-31T01:41:31.818Z,82.61
2018-12-31T01:42:31.702Z,82.81
2018-12-31T01:43:31.689Z,82.61
2018-12-31T01:44:31.679Z,82.34
2018-12-31T01:45:31.670Z,83.01
2018-12-31T01:46:31.661Z,82.61
2018-12-31T01:47:31.956Z,82.31
2018-12-31T01:48:31.639Z,82.61
2018-12-31T01:49:31.628Z,82.61
2018-12-31T01:50:31.616Z,82.34
2018-12-31T01:51:31.603Z,82.34
2018-12-31T01:52:31.600Z,82.81
2018-12-31T01:53:31.680Z,82.85
2018-12-31T01:54:31.570Z,82.34
2018-12-31T01:55:31.563Z,82.85
2018-12-31T01:56:31.549Z,82.95
2018-12-31T01:57:31.543Z,82.92
2018-12-31T01:58:31.535Z,82.31
2018-12-31T01:59:31.617Z,83.06
2018-12-31T02:00:31.718Z,82.14
2018-12-31T02:01:31.498Z,82.54
2018-12-31T02:02:31.486Z,82.61
2018-12-31T02:03:31.474Z,82.10
2018-12-31T02:04:31.481Z,82.45
2018-12-31T02:05:31.626Z,82.65
2018-12-31T02:06:31.444Z,82.51
2018-12-31T02:07:31.432Z,82.65
2018-12-31T02:08:31.421Z,82.24
2018-12-31T02:09:31.408Z,82.24
2018-12-31T02:10:31.401Z,82.34
2018-12-31T02:11:31.486Z,82.34
2018-12-31T02:12:31.378Z,82.54
2018-12-31T02:13:31.367Z,82.34
2018-12-31T02:14:31.355Z,82.85
2018-12-31T02:15:31.346Z,83.06
2018-12-31T02:16:31.335Z,83.06
2018-12-31T02:17:31.424Z,82.85
2018-12-31T02:18:31.313Z,82.85
2018-12-31T02:19:31.303Z,82.34
2018-12-31T02:20:31.287Z,83.06
2018-12-31T02:21:31.283Z,82.34
2018-12-31T02:22:31.273Z,82.34
2018-12-31T02:23:31.416Z,82.14
2018-12-31T02:24:31.246Z,82.54
2018-12-31T02:25:31.234Z,82.24
2018-12-31T02:26:31.226Z,82.54
2018-12-31T02:27:31.215Z,82.45
2018-12-31T02:28:31.205Z,82.45
2018-12-31T02:29:31.355Z,82.04
2018-12-31T02:30:31.182Z,82.04
2018-12-31T02:31:31.168Z,81.93
2018-12-31T02:32:31.169Z,82.24
2018-12-31T02:33:31.155Z,82.24
2018-12-31T02:34:31.142Z,82.34
2018-12-31T02:35:31.224Z,82.45
2018-12-31T02:36:31.123Z,82.54
2018-12-31T02:37:31.110Z,82.54
2018-12-31T02:38:31.097Z,82.65
2018-12-31T02:39:31.085Z,82.54
2018-12-31T02:40:31.071Z,82.54
2018-12-31T02:41:31.373Z,82.54
2018-12-31T02:42:31.053Z,82.54
2018-12-31T02:43:31.046Z,82.54
2018-12-31T02:44:31.033Z,82.54
2018-12-31T02:45:31.017Z,82.04
2018-12-31T02:46:31.025Z,82.45
2018-12-31T02:47:31.161Z,82.45
2018-12-31T02:48:30.987Z,82.54
2018-12-31T02:49:30.978Z,82.34
2018-12-31T02:50:30.976Z,82.54
2018-12-31T02:51:30.959Z,82.24
2018-12-31T02:52:30.948Z,82.04
2018-12-31T02:53:31.033Z,81.93
2018-12-31T02:54:30.923Z,82.04
2018-12-31T02:55:30.917Z,82.34
2018-12-31T02:56:30.903Z,82.59
2018-12-31T02:57:30.895Z,82.38
2018-12-31T02:58:30.882Z,82.59
2018-12-31T02:59:30.965Z,82.59
2018-12-31T03:00:30.856Z,82.59
2018-12-31T03:01:30.847Z,82.65
2018-12-31T03:02:39.576Z,82.38
2018-12-31T03:03:39.576Z,82.38
2018-12-31T03:04:30.818Z,82.18
2018-12-31T03:05:31.002Z,82.28
2018-12-31T03:06:30.804Z,82.07
2018-12-31T03:07:30.783Z,82.38
2018-12-31T03:08:30.772Z,82.38
2018-12-31T03:09:30.764Z,82.07
2018-12-31T03:10:30.755Z,82.38
2018-12-31T03:11:30.899Z,82.18
2018-12-31T03:12:30.731Z,82.28
2018-12-31T03:13:30.746Z,82.07
2018-12-31T03:14:30.709Z,82.28
2018-12-31T03:15:30.702Z,82.59
2018-12-31T03:16:30.685Z,82.07
2018-12-31T03:17:30.851Z,82.07
2018-12-31T03:18:30.665Z,82.38
2018-12-31T03:19:30.655Z,82.38
2018-12-31T03:20:30.643Z,82.38
2018-12-31T03:21:30.676Z,82.18
2018-12-31T03:22:30.621Z,82.48
2018-12-31T03:23:30.843Z,82.07
2018-12-31T03:24:30.600Z,82.07
2018-12-31T03:25:30.603Z,81.98
2018-12-31T03:26:30.579Z,81.77
2018-12-31T03:27:30.573Z,81.93
2018-12-31T03:28:30.558Z,81.87
2018-12-31T03:29:30.642Z,81.57
2018-12-31T03:30:30.537Z,81.46
2018-12-31T03:31:30.528Z,81.67
2018-12-31T03:32:30.526Z,81.46
2018-12-31T03:33:30.505Z,81.26
2018-12-31T03:34:30.493Z,81.37
2018-12-31T03:35:30.642Z,81.46
2018-12-31T03:36:30.469Z,81.23
2018-12-31T03:37:30.457Z,81.23
2018-12-31T03:38:30.452Z,81.53
2018-12-31T03:39:30.447Z,81.26
2018-12-31T03:40:30.425Z,81.16
2018-12-31T03:41:30.526Z,81.63
2018-12-31T03:42:30.407Z,81.67
2018-12-31T03:43:30.395Z,81.63
2018-12-31T03:44:30.386Z,81.57
2018-12-31T03:45:30.378Z,81.67
2018-12-31T03:46:30.363Z,81.46
2018-12-31T03:47:30.622Z,81.57
2018-12-31T03:48:30.342Z,81.57
2018-12-31T03:49:30.330Z,81.16
2018-12-31T03:50:30.320Z,81.43
2018-12-31T03:51:30.309Z,81.46
2018-12-31T03:52:30.296Z,81.77
2018-12-31T03:53:30.380Z,81.67
2018-12-31T03:54:30.277Z,81.37
2018-12-31T03:55:30.268Z,81.26
2018-12-31T03:56:30.252Z,81.26
2018-12-31T03:57:30.256Z,81.57
2018-12-31T03:58:30.234Z,81.26
2018-12-31T03:59:30.314Z,81.26
2018-12-31T04:00:30.213Z,81.26
2018-12-31T04:01:30.224Z,81.26
2018-12-31T04:02:30.187Z,81.37
2018-12-31T04:03:30.187Z,81.37
2018-12-31T04:04:30.170Z,81.37
2018-12-31T04:05:30.333Z,81.53
2018-12-31T04:06:30.155Z,81.67
2018-12-31T04:07:30.143Z,81.43
2018-12-31T04:08:30.126Z,81.33
2018-12-31T04:09:30.116Z,81.43
2018-12-31T04:10:30.111Z,81.53
2018-12-31T04:11:30.261Z,81.43
2018-12-31T04:12:30.083Z,81.33
2018-12-31T04:13:30.078Z,81.67
2018-12-31T04:14:30.069Z,81.73
2018-12-31T04:15:30.054Z,81.84
2018-12-31T04:16:30.041Z,81.63
2018-12-31T04:17:30.134Z,81.73
2018-12-31T04:18:30.028Z,81.53
2018-12-31T04:19:30.007Z,81.87
2018-12-31T04:20:29.996Z,81.77
2018-12-31T04:21:29.995Z,81.73
2018-12-31T04:22:29.978Z,81.73
2018-12-31T04:23:30.071Z,81.84
2018-12-31T04:24:29.955Z,81.77
2018-12-31T04:25:29.943Z,81.63
2018-12-31T04:26:29.931Z,81.63
2018-12-31T04:27:29.921Z,81.43
2018-12-31T04:28:29.912Z,81.33
2018-12-31T04:29:30.100Z,80.92
2018-12-31T04:30:29.892Z,80.82
2018-12-31T04:31:29.880Z,80.72
2018-12-31T04:32:29.878Z,80.72
2018-12-31T04:33:29.857Z,80.92
2018-12-31T04:34:29.846Z,81.23
2018-12-31T04:35:29.939Z,81.12
2018-12-31T04:36:29.921Z,81.02
2018-12-31T04:37:29.814Z,81.23
2018-12-31T04:38:29.824Z,81.23
2018-12-31T04:39:29.792Z,81.23
2018-12-31T04:40:29.782Z,81.02
2018-12-31T04:41:29.868Z,81.12
2018-12-31T04:42:29.759Z,81.02
2018-12-31T04:43:29.748Z,81.12
2018-12-31T04:44:29.743Z,81.02
2018-12-31T04:45:29.773Z,81.12
2018-12-31T04:46:29.717Z,81.23
2018-12-31T04:47:29.951Z,81.33
2018-12-31T04:48:29.699Z,81.33
2018-12-31T04:49:29.683Z,81.23
2018-12-31T04:50:29.678Z,81.23
2018-12-31T04:51:29.662Z,81.23
2018-12-31T04:52:29.653Z,81.33
2018-12-31T04:53:29.823Z,80.98
2018-12-31T04:54:29.632Z,80.92
2018-12-31T04:55:29.619Z,81.02
2018-12-31T04:56:29.609Z,80.62
2018-12-31T04:57:29.596Z,80.92
2018-12-31T04:58:29.586Z,80.62
2018-12-31T04:59:29.673Z,80.92
2018-12-31T05:00:29.565Z,80.62
2018-12-31T05:01:29.556Z,80.51
2018-12-31T05:02:29.620Z,80.51
2018-12-31T05:03:29.533Z,80.92
2018-12-31T05:04:29.525Z,80.62
2018-12-31T05:05:29.815Z,80.51
2018-12-31T05:06:29.501Z,80.51
2018-12-31T05:07:29.492Z,80.31
2018-12-31T05:08:29.478Z,80.41
2018-12-31T05:09:29.469Z,80.51
2018-12-31T05:10:29.457Z,80.41
2018-12-31T05:11:29.543Z,80.47
2018-12-31T05:12:29.435Z,80.37
2018-12-31T05:13:29.424Z,80.31
2018-12-31T05:14:29.418Z,80.11
2018-12-31T05:15:29.421Z,80.37
2018-12-31T05:16:29.395Z,80.21
2018-12-31T05:17:29.655Z,80.41
2018-12-31T05:18:38.110Z,80.31
2018-12-31T05:19:39.099Z,80.31
2018-12-31T05:20:29.353Z,80.51
2018-12-31T05:21:29.340Z,80.21
2018-12-31T05:22:29.329Z,80.37
2018-12-31T05:23:29.412Z,80.51
2018-12-31T05:24:29.307Z,80.51
2018-12-31T05:25:29.303Z,80.51
2018-12-31T05:26:29.286Z,80.92
2018-12-31T05:27:29.307Z,80.31
2018-12-31T05:28:29.278Z,80.47
2018-12-31T05:29:29.363Z,80.82
2018-12-31T05:30:29.249Z,80.31
2018-12-31T05:31:29.231Z,80.31
2018-12-31T05:32:29.224Z,80.51
2018-12-31T05:33:29.213Z,80.51
2018-12-31T05:34:29.200Z,80.51
2018-12-31T05:35:29.443Z,80.58
2018-12-31T05:36:29.180Z,80.41
2018-12-31T05:37:29.165Z,80.31
2018-12-31T05:38:29.161Z,80.11
2018-12-31T05:39:29.151Z,80.31
2018-12-31T05:40:29.134Z,80.31
2018-12-31T05:41:29.439Z,80.21
2018-12-31T05:42:29.113Z,80.51
2018-12-31T05:43:29.103Z,80.37
2018-12-31T05:44:29.092Z,80.51
2018-12-31T05:45:29.078Z,80.41
2018-12-31T05:46:29.085Z,80.31
2018-12-31T05:47:29.180Z,80.41
2018-12-31T05:48:29.048Z,80.17
2018-12-31T05:49:29.038Z,80.41
2018-12-31T05:50:29.025Z,80.62
2018-12-31T05:51:29.025Z,80.07
2018-12-31T05:52:29.007Z,80.51
2018-12-31T05:53:29.246Z,80.41
2018-12-31T05:54:28.984Z,80.21
2018-12-31T05:55:28.973Z,80.27
2018-12-31T05:56:28.972Z,80.27
2018-12-31T05:57:28.950Z,80.62
2018-12-31T05:58:28.939Z,80.37
2018-12-31T05:59:29.034Z,80.27
2018-12-31T06:00:28.918Z,80.37
2018-12-31T06:01:28.908Z,80.47
2018-12-31T06:02:28.902Z,80.07
2018-12-31T06:03:28.885Z,80.27
2018-12-31T06:04:28.874Z,80.17
2018-12-31T06:05:29.137Z,80.07
2018-12-31T06:06:28.871Z,80.07
2018-12-31T06:07:28.846Z,80.47
2018-12-31T06:08:28.832Z,80.47
2018-12-31T06:09:28.824Z,80.27
2018-12-31T06:10:28.810Z,79.97
2018-12-31T06:11:28.906Z,79.97
2018-12-31T06:12:28.790Z,80.37
2018-12-31T06:13:28.777Z,80.47
2018-12-31T06:14:28.767Z,80.37
2018-12-31T06:15:28.801Z,80.27
2018-12-31T06:16:28.743Z,80.37
2018-12-31T06:17:28.941Z,80.47
2018-12-31T06:18:28.725Z,80.37
2018-12-31T06:19:28.723Z,80.37
2018-12-31T06:20:28.700Z,80.33
2018-12-31T06:21:28.689Z,80.03
2018-12-31T06:22:28.678Z,80.17
2018-12-31T06:23:28.779Z,79.93
2018-12-31T06:24:28.659Z,80.24
2018-12-31T06:25:28.648Z,80.03
2018-12-31T06:26:28.637Z,80.33
2018-12-31T06:27:28.628Z,80.03
2018-12-31T06:28:28.639Z,80.03
2018-12-31T06:29:28.709Z,79.93
2018-12-31T06:30:28.597Z,79.72
2018-12-31T06:31:28.582Z,79.52
2018-12-31T06:32:28.570Z,79.83
2018-12-31T06:33:28.559Z,79.42
2018-12-31T06:34:28.553Z,79.83
2018-12-31T06:35:28.860Z,79.79
2018-12-31T06:36:28.531Z,79.90
2018-12-31T06:37:28.519Z,79.79
2018-12-31T06:38:28.505Z,79.79
2018-12-31T06:39:28.496Z,79.99
2018-12-31T06:40:28.680Z,79.99
2018-12-31T06:41:28.745Z,80.10
2018-12-31T06:42:28.466Z,79.99
2018-12-31T06:43:28.450Z,79.49
2018-12-31T06:44:28.442Z,79.99
2018-12-31T06:45:28.434Z,80.10
2018-12-31T06:46:28.424Z,80.19
2018-12-31T06:47:28.515Z,80.19
2018-12-31T06:48:28.401Z,79.90
2018-12-31T06:49:28.388Z,80.10
2018-12-31T06:50:28.381Z,80.10
2018-12-31T06:51:28.367Z,80.30
2018-12-31T06:52:28.357Z,79.55
2018-12-31T06:53:28.443Z,80.30
2018-12-31T06:54:28.336Z,80.19
2018-12-31T06:55:28.326Z,80.06
2018-12-31T06:56:28.313Z,80.19
2018-12-31T06:57:28.304Z,80.26
2018-12-31T06:58:28.298Z,80.06
2018-12-31T06:59:28.614Z,80.36
2018-12-31T07:00:28.270Z,80.26
2018-12-31T07:01:28.259Z,80.26
2018-12-31T07:02:29.036Z,80.16
2018-12-31T07:03:28.239Z,80.16
2018-12-31T07:04:28.230Z,80.06
2018-12-31T07:05:28.318Z,79.75
2018-12-31T07:06:28.212Z,80.16
2018-12-31T07:07:28.194Z,79.96
2018-12-31T07:08:28.185Z,79.85
2018-12-31T07:09:28.175Z,79.65
2018-12-31T07:10:28.162Z,79.45
2018-12-31T07:11:28.248Z,79.72
2018-12-31T07:12:28.142Z,79.72
2018-12-31T07:13:29.434Z,79.65
2018-12-31T07:14:28.117Z,79.75
2018-12-31T07:15:28.109Z,79.75
2018-12-31T07:16:28.094Z,79.55
2018-12-31T07:17:28.257Z,79.96
2018-12-31T07:18:28.072Z,79.55
2018-12-31T07:19:28.067Z,79.85
2018-12-31T07:20:28.057Z,79.96
2018-12-31T07:21:28.044Z,79.82
2018-12-31T07:22:28.033Z,79.72
2018-12-31T07:23:28.186Z,79.61
2018-12-31T07:24:28.011Z,79.41
2018-12-31T07:25:27.998Z,79.61
2018-12-31T07:26:27.989Z,79.61
2018-12-31T07:27:27.987Z,79.72
2018-12-31T07:28:27.968Z,79.82
2018-12-31T07:29:28.055Z,79.82
2018-12-31T07:30:27.946Z,79.72
2018-12-31T07:31:27.935Z,79.72
2018-12-31T07:32:27.924Z,79.82
2018-12-31T07:33:27.914Z,79.82
2018-12-31T07:34:27.906Z,79.68
2018-12-31T07:35:28.086Z,79.58
2018-12-31T07:36:27.882Z,79.47
2018-12-31T07:37:27.875Z,79.78
2018-12-31T07:38:27.861Z,79.68
2018-12-31T07:39:27.849Z,79.27
2018-12-31T07:40:27.834Z,79.17
2018-12-31T07:41:27.918Z,79.27
2018-12-31T07:42:27.819Z,79.68
2018-12-31T07:43:27.802Z,79.68
2018-12-31T07:44:27.794Z,79.17
2018-12-31T07:45:27.787Z,79.88
2018-12-31T07:46:27.780Z,79.27
2018-12-31T07:47:27.929Z,79.58
2018-12-31T07:48:27.754Z,79.03
2018-12-31T07:49:27.739Z,79.07
2018-12-31T07:50:28.291Z,79.38
2018-12-31T07:51:27.717Z,79.64
2018-12-31T07:52:27.713Z,79.74
2018-12-31T07:53:27.797Z,79.47
2018-12-31T07:54:27.696Z,79.88
2018-12-31T07:55:27.673Z,79.88
2018-12-31T07:56:27.664Z,79.74
2018-12-31T07:57:27.662Z,79.13
2018-12-31T07:58:27.650Z,79.64
2018-12-31T07:59:27.782Z,79.44
2018-12-31T08:00:27.622Z,79.74
2018-12-31T08:01:27.620Z,79.24
2018-12-31T08:02:27.601Z,79.64
2018-12-31T08:03:27.587Z,79.24
2018-12-31T08:04:27.590Z,79.34
2018-12-31T08:05:27.667Z,79.54
2018-12-31T08:06:27.553Z,79.24
2018-12-31T08:07:27.546Z,79.20
2018-12-31T08:08:27.538Z,79.50
2018-12-31T08:09:27.531Z,79.54
2018-12-31T08:10:27.515Z,79.50
2018-12-31T08:11:27.611Z,79.20
2018-12-31T08:12:27.506Z,79.80
2018-12-31T08:13:27.496Z,79.74
2018-12-31T08:14:27.478Z,79.91
2018-12-31T08:15:27.462Z,79.40
2018-12-31T08:16:27.456Z,79.20
2018-12-31T08:17:27.670Z,79.24
2018-12-31T08:18:27.443Z,79.20
2018-12-31T08:19:27.416Z,79.50
2018-12-31T08:20:27.405Z,79.10
2018-12-31T08:21:27.395Z,79.40
2018-12-31T08:22:28.033Z,79.60
2018-12-31T08:23:27.474Z,79.00
2018-12-31T08:24:27.363Z,79.10
2018-12-31T08:25:27.351Z,79.00
2018-12-31T08:26:27.340Z,79.00
2018-12-31T08:27:27.331Z,79.10
2018-12-31T08:28:27.330Z,79.00
2018-12-31T08:29:28.300Z,78.89
2018-12-31T08:30:27.316Z,79.00
2018-12-31T08:31:27.287Z,79.30
2018-12-31T08:32:27.279Z,79.30
2018-12-31T08:33:27.263Z,79.13
2018-12-31T08:34:27.266Z,79.10
2018-12-31T08:35:27.362Z,79.50
2018-12-31T08:36:27.261Z,79.40
2018-12-31T08:37:27.222Z,79.30
2018-12-31T08:38:27.216Z,78.79
2018-12-31T08:39:27.251Z,79.10
2018-12-31T08:40:27.205Z,79.10
2018-12-31T08:41:27.390Z,78.75
2018-12-31T08:42:27.195Z,79.50
2018-12-31T08:43:27.186Z,79.00
2018-12-31T08:44:27.155Z,79.40
2018-12-31T08:45:27.145Z,79.50
2018-12-31T08:46:27.152Z,79.10
2018-12-31T08:47:27.291Z,79.20
2018-12-31T08:48:27.115Z,78.79
2018-12-31T08:49:27.099Z,79.20
2018-12-31T08:50:27.088Z,79.20
2018-12-31T08:51:27.082Z,78.89
2018-12-31T08:52:27.099Z,78.55
2018-12-31T08:53:27.165Z,79.10
2018-12-31T08:54:27.056Z,78.89
2018-12-31T08:55:27.032Z,78.69
2018-12-31T08:56:27.021Z,78.55
2018-12-31T08:57:27.017Z,78.89
2018-12-31T08:58:27.002Z,79.20
2018-12-31T08:59:27.096Z,79.16
2018-12-31T09:00:26.999Z,78.75
2018-12-31T09:01:26.970Z,78.86
2018-12-31T09:02:26.974Z,78.96
2018-12-31T09:03:26.946Z,78.25
2018-12-31T09:04:26.948Z,78.25
2018-12-31T09:05:27.138Z,78.86
2018-12-31T09:06:26.929Z,78.86
2018-12-31T09:07:26.911Z,78.96
2018-12-31T09:08:26.892Z,78.66
2018-12-31T09:09:26.888Z,78.96
2018-12-31T09:10:26.883Z,78.86
2018-12-31T09:11:26.984Z,78.75
2018-12-31T09:12:26.855Z,78.35
2018-12-31T09:13:26.849Z,78.86
2018-12-31T09:14:26.835Z,78.96
2018-12-31T09:15:26.820Z,78.96
2018-12-31T09:16:26.821Z,78.45
2018-12-31T09:17:26.900Z,78.86
2018-12-31T09:18:26.783Z,78.75
2018-12-31T09:19:26.775Z,78.45
2018-12-31T09:20:28.396Z,78.55
2018-12-31T09:21:26.755Z,78.86
2018-12-31T09:22:26.748Z,78.55
2018-12-31T09:23:27.009Z,78.42
2018-12-31T09:24:26.732Z,78.52
2018-12-31T09:25:26.710Z,78.62
2018-12-31T09:26:26.707Z,78.62
2018-12-31T09:27:26.688Z,78.45
2018-12-31T09:28:26.680Z,78.52
2018-12-31T09:29:26.842Z,78.62
2018-12-31T09:30:26.673Z,78.62
2018-12-31T09:31:26.641Z,78.21
2018-12-31T09:32:26.711Z,78.42
2018-12-31T09:33:26.620Z,78.62
2018-12-31T09:34:26.614Z,78.62
2018-12-31T09:35:26.707Z,78.52
2018-12-31T09:36:26.652Z,78.62
2018-12-31T09:37:26.584Z,78.52
2018-12-31T09:38:26.567Z,78.42
2018-12-31T09:39:26.565Z,78.52
2018-12-31T09:40:26.554Z,78.72
2018-12-31T09:41:26.740Z,78.48
2018-12-31T09:42:26.528Z,78.31
2018-12-31T09:43:26.513Z,78.68
2018-12-31T09:44:26.503Z,78.72
2018-12-31T09:45:26.498Z,78.68
2018-12-31T09:46:26.492Z,78.68
2018-12-31T09:47:26.598Z,78.08
2018-12-31T09:48:26.463Z,77.77
2018-12-31T09:49:26.451Z,77.97
2018-12-31T09:50:26.437Z,78.17
2018-12-31T09:51:26.429Z,77.53
2018-12-31T09:52:26.429Z,78.24
2018-12-31T09:53:26.504Z,78.24
2018-12-31T09:54:26.393Z,78.04
2018-12-31T09:55:26.382Z,78.24
2018-12-31T09:56:26.374Z,78.28
2018-12-31T09:57:26.364Z,77.73
2018-12-31T09:58:27.135Z,77.73
2018-12-31T09:59:26.621Z,77.43
2018-12-31T10:00:26.337Z,78.24
2018-12-31T10:01:35.080Z,78.24
2018-12-31T10:02:26.302Z,78.14
2018-12-31T10:03:26.296Z,78.34
2018-12-31T10:04:26.288Z,78.24
2018-12-31T10:05:26.478Z,78.24
2018-12-31T10:06:26.259Z,78.44
2018-12-31T10:07:26.247Z,77.84
2018-12-31T10:08:26.238Z,77.39
2018-12-31T10:09:26.231Z,77.39
2018-12-31T10:10:26.218Z,77.19
2018-12-31T10:11:26.354Z,77.19
2018-12-31T10:12:26.200Z,77.43
2018-12-31T10:13:26.195Z,77.09
2018-12-31T10:14:26.173Z,77.23
2018-12-31T10:15:26.162Z,77.19
2018-12-31T10:16:26.157Z,77.29
2018-12-31T10:17:26.304Z,77.70
2018-12-31T10:18:26.130Z,77.60
2018-12-31T10:19:26.120Z,77.60
2018-12-31T10:20:26.117Z,77.19
2018-12-31T10:21:26.101Z,77.39
2018-12-31T10:22:26.098Z,77.80
2018-12-31T10:23:26.282Z,77.80
2018-12-31T10:24:26.073Z,77.19
2018-12-31T10:25:26.058Z,77.19
2018-12-31T10:26:26.052Z,77.15
2018-12-31T10:27:26.676Z,77.06
2018-12-31T10:28:26.030Z,76.99
2018-12-31T10:29:26.296Z,76.95
2018-12-31T10:30:26.016Z,77.15
2018-12-31T10:31:26.001Z,77.15
2018-12-31T10:32:25.984Z,77.26
2018-12-31T10:33:25.983Z,77.26
2018-12-31T10:34:25.963Z,77.15
2018-12-31T10:35:26.140Z,77.15
2018-12-31T10:36:25.947Z,77.15
2018-12-31T10:37:25.933Z,77.15
2018-12-31T10:38:25.915Z,77.06
2018-12-31T10:39:25.944Z,77.06
2018-12-31T10:40:25.900Z,77.15
2018-12-31T10:41:26.052Z,76.65
2018-12-31T10:42:25.870Z,77.06
2018-12-31T10:43:25.868Z,77.06
2018-12-31T10:44:25.853Z,77.15
2018-12-31T10:45:25.850Z,77.06
2018-12-31T10:46:25.833Z,77.36
2018-12-31T10:47:25.932Z,77.66
2018-12-31T10:48:25.819Z,78.27
2018-12-31T10:49:25.805Z,77.90
2018-12-31T10:50:25.793Z,77.86
2018-12-31T10:51:26.665Z,78.30
2018-12-31T10:52:25.769Z,78.00
2018-12-31T10:53:25.879Z,77.86
2018-12-31T10:54:25.745Z,77.70
2018-12-31T10:55:25.738Z,77.60
2018-12-31T10:56:25.723Z,77.60
2018-12-31T10:57:25.712Z,78.71
2018-12-31T10:58:25.718Z,77.90
2018-12-31T10:59:25.873Z,78.00
2018-12-31T11:00:25.703Z,77.90
2018-12-31T11:01:25.673Z,78.17
2018-12-31T11:02:25.666Z,78.10
2018-12-31T11:03:25.658Z,78.00
2018-12-31T11:04:25.642Z,78.20
2018-12-31T11:05:25.806Z,78.10
2018-12-31T11:06:25.635Z,77.50
2018-12-31T11:07:25.612Z,78.20
2018-12-31T11:08:25.598Z,77.80
2018-12-31T11:09:26.189Z,78.06
2018-12-31T11:10:25.576Z,77.90
2018-12-31T11:11:25.676Z,78.10
2018-12-31T11:12:25.557Z,78.10
2018-12-31T11:13:25.539Z,78.27
2018-12-31T11:14:25.541Z,78.17
2018-12-31T11:15:25.519Z,78.00
2018-12-31T11:16:25.514Z,78.17
2018-12-31T11:17:25.930Z,78.17
2018-12-31T11:18:25.488Z,78.17
2018-12-31T11:19:25.474Z,78.17
2018-12-31T11:20:25.463Z,78.10
2018-12-31T11:21:25.451Z,77.90
2018-12-31T11:22:25.444Z,78.00
2018-12-31T11:23:25.593Z,78.30
2018-12-31T11:24:25.417Z,78.27
2018-12-31T11:25:25.410Z,78.27
2018-12-31T11:26:25.404Z,78.30
2018-12-31T11:27:25.384Z,77.80
2018-12-31T11:28:25.380Z,77.66
2018-12-31T11:29:25.462Z,77.26
2018-12-31T11:30:25.357Z,77.76
2018-12-31T11:31:30.301Z,77.36
2018-12-31T11:32:26.334Z,77.15
2018-12-31T11:33:25.323Z,77.15
2018-12-31T11:34:25.387Z,77.09
2018-12-31T11:35:25.612Z,77.15
2018-12-31T11:36:25.302Z,77.39
2018-12-31T11:37:25.279Z,77.15
2018-12-31T11:38:25.272Z,77.26
2018-12-31T11:39:25.255Z,77.36
2018-12-31T11:40:25.246Z,77.15
2018-12-31T11:41:25.343Z,77.26
2018-12-31T11:42:25.223Z,77.66
2018-12-31T11:43:25.212Z,77.66
2018-12-31T11:44:25.201Z,77.80
2018-12-31T11:45:25.191Z,77.70
2018-12-31T11:46:25.183Z,77.66
2018-12-31T11:47:25.268Z,77.66
2018-12-31T11:48:25.166Z,77.06
2018-12-31T11:49:25.146Z,77.15
2018-12-31T11:50:25.135Z,77.26
2018-12-31T11:51:25.127Z,77.06
2018-12-31T11:52:25.116Z,76.65
2018-12-31T11:53:25.516Z,77.26
2018-12-31T11:54:25.102Z,77.46
2018-12-31T11:55:25.082Z,77.06
2018-12-31T11:56:25.085Z,77.15
2018-12-31T11:57:25.062Z,77.15
2018-12-31T11:58:25.050Z,76.95
2018-12-31T11:59:25.344Z,76.75
2018-12-31T12:00:25.028Z,76.95
2018-12-31T12:01:25.018Z,77.26
2018-12-31T12:02:25.008Z,77.02
2018-12-31T12:03:24.996Z,77.12
2018-12-31T12:04:24.986Z,76.95
2018-12-31T12:05:25.104Z,77.06
2018-12-31T12:06:24.969Z,77.36
2018-12-31T12:07:24.954Z,77.06
2018-12-31T12:08:24.960Z,77.15
2018-12-31T12:09:24.931Z,77.12
2018-12-31T12:10:24.940Z,77.26
2018-12-31T12:11:25.083Z,77.26
2018-12-31T12:12:24.907Z,77.06
2018-12-31T12:13:24.892Z,77.66
2018-12-31T12:14:24.882Z,77.02
2018-12-31T12:15:24.875Z,76.86
2018-12-31T12:16:24.872Z,76.82
2018-12-31T12:17:25.029Z,77.22
2018-12-31T12:18:24.841Z,76.92
2018-12-31T12:19:24.836Z,77.02
2018-12-31T12:20:24.828Z,76.95
2018-12-31T12:21:24.813Z,77.22
2018-12-31T12:22:24.811Z,77.15
2018-12-31T12:23:24.903Z,77.02
2018-12-31T12:24:24.774Z,76.35
2018-12-31T12:25:24.769Z,76.92
2018-12-31T12:26:24.752Z,77.06
2018-12-31T12:27:24.741Z,76.86
2018-12-31T12:28:24.735Z,76.72
2018-12-31T12:29:24.889Z,77.02
2018-12-31T12:30:24.712Z,76.21
2018-12-31T12:31:24.699Z,76.55
2018-12-31T12:32:24.691Z,76.21
2018-12-31T12:33:24.679Z,77.02
2018-12-31T12:34:24.671Z,77.15
2018-12-31T12:35:24.847Z,77.02
2018-12-31T12:36:24.645Z,77.12
2018-12-31T12:37:24.639Z,76.45
2018-12-31T12:38:24.626Z,76.31
2018-12-31T12:39:24.610Z,76.62
2018-12-31T12:40:24.600Z,76.31
2018-12-31T12:41:24.694Z,75.91
2018-12-31T12:42:24.578Z,76.11
2018-12-31T12:43:24.564Z,76.31
2018-12-31T12:44:24.571Z,76.01
2018-12-31T12:45:24.555Z,76.62
2018-12-31T12:46:24.544Z,76.21
2018-12-31T12:47:24.751Z,76.42
2018-12-31T12:48:24.512Z,76.31
2018-12-31T12:49:24.506Z,76.62
2018-12-31T12:50:24.497Z,76.51
2018-12-31T12:51:24.481Z,76.72
2018-12-31T12:52:24.474Z,76.92